Time;durP1;ratioP1;P1;durP2;ratioP2;P2;SDS_P1;SDS_P2;PMS_P1;PMS_P2;Temp;Humidity;BMP_temperature;BMP_pressure;BME280_temperature;BME280_humidity;BME280_pressure;Samples;Min_cycle;Max_cycle;Signal;HPM_P1;HPM_P2
2022/11/03 00:01:02;;;;;;;;;;;;;;;15.21;83.35;100761.16;5033350;28;880;-64
2022/11/03 00:03:27;;;;;;;;;;;;;;;15.20;83.74;100759.50;5033345;28;813;-64
2022/11/03 00:06:05;;;;;;;;;;;;;;;15.21;83.59;100755.63;5032944;28;1162;-64
2022/11/03 00:08:34;;;;;;;;;;;;;;;15.20;83.72;100748.47;5033455;28;852;-64
2022/11/03 00:11:03;;;;;;;;;;;;;;;15.20;83.39;100750.41;5033269;28;905;-64
2022/11/03 00:13:28;;;;;;;;;;;;;;;15.20;83.15;100751.25;5033284;28;1968;-64
2022/11/03 00:15:53;;;;;;;;;;;;;;;15.20;83.54;100751.25;5032856;28;1256;-64
2022/11/03 00:18:18;;;;;;;;;;;;;;;15.19;83.61;100746.03;5033227;28;801;-64
2022/11/03 00:20:43;;;;;;;;;;;;;;;15.19;83.10;100744.09;5033023;28;1034;-64
2022/11/03 00:23:08;;;;;;;;;;;;;;;15.19;83.52;100735.81;5036487;28;774;-62
2022/11/03 00:25:34;;;;;;;;;;;;;;;15.18;83.32;100736.94;5037247;28;1232;-63
2022/11/03 00:27:59;;;;;;;;;;;;;;;15.18;83.46;100728.66;5036960;28;885;-62
2022/11/03 00:30:24;;;;;;;;;;;;;;;15.17;83.25;100727.03;5037130;28;1051;-63
2022/11/03 00:32:49;;;;;;;;;;;;;;;15.17;83.74;100724.25;5037294;28;1004;-66
2022/11/03 00:35:14;;;;;;;;;;;;;;;15.15;83.31;100732.84;5036896;28;1882;-62
2022/11/03 00:37:39;;;;;;;;;;;;;;;15.15;83.50;100726.50;5036830;28;864;-64
2022/11/03 00:40:05;;;;;;;;;;;;;;;15.16;83.10;100711.59;5037111;28;999;-62
2022/11/03 00:42:30;;;;;;;;;;;;;;;15.16;83.61;100719.88;5036905;28;1051;-63
2022/11/03 00:44:55;;;;;;;;;;;;;;;15.14;83.55;100722.13;5036715;28;1246;-62
2022/11/03 00:47:20;;;;;;;;;;;;;;;15.16;83.75;100706.09;5036615;28;727;-62
2022/11/03 00:49:45;;;;;;;;;;;;;;;15.17;83.54;100712.41;5036761;28;995;-65
2022/11/03 00:52:11;;;;;;;;;;;;;;;15.15;83.36;100715.47;5036786;28;864;-63
2022/11/03 00:54:36;;;;;;;;;;;;;;;15.14;83.11;100720.16;5036554;28;1977;-64
2022/11/03 00:57:01;;;;;;;;;;;;;;;15.14;83.47;100714.66;5036495;28;829;-63
2022/11/03 00:59:26;;;;;;;;;;;;;;;15.13;83.78;100724.09;5036597;28;932;-62
2022/11/03 01:01:51;;;;;;;;;;;;;;;15.13;83.19;100720.50;5036571;28;856;-62
2022/11/03 01:07:01;;;;;;;;;;;;;;;15.14;83.63;100711.91;5036318;28;719;-63
2022/11/03 01:09:44;;;;;;;;;;;;;;;15.13;83.83;100709.47;5036450;28;914;-63
2022/11/03 01:12:11;;;;;;;;;;;;;;;15.12;83.33;100696.81;5036417;28;865;-62
2022/11/03 01:14:42;;;;;;;;;;;;;;;15.12;83.72;100696.81;5036149;28;1944;-63
2022/11/03 01:17:09;;;;;;;;;;;;;;;15.11;83.32;100689.66;5036150;28;999;-62
2022/11/03 01:19:34;;;;;;;;;;;;;;;15.11;83.68;100682.19;5036212;28;894;-62
2022/11/03 01:21:59;;;;;;;;;;;;;;;15.10;83.33;100661.25;5036169;28;2004;-62
2022/11/03 01:24:25;;;;;;;;;;;;;;;15.10;83.90;100660.44;5036025;28;1267;-63
2022/11/03 01:26:50;;;;;;;;;;;;;;;15.10;83.41;100647.47;5036138;28;881;-62
2022/11/03 01:29:15;;;;;;;;;;;;;;;15.09;83.30;100645.84;5036056;28;980;-62
2022/11/03 01:31:40;;;;;;;;;;;;;;;15.09;83.76;100634.00;5036254;28;950;-64
2022/11/03 01:34:06;;;;;;;;;;;;;;;15.09;83.17;100634.81;5034820;28;1952;-64
2022/11/03 01:36:31;;;;;;;;;;;;;;;15.09;83.42;100628.47;5035725;28;900;-64
2022/11/03 01:38:56;;;;;;;;;;;;;;;15.09;83.40;100628.47;5035926;28;991;-64
2022/11/03 01:41:22;;;;;;;;;;;;;;;15.09;83.40;100628.47;5035860;28;791;-64
2022/11/03 01:44:10;;;;;;;;;;;;;;;15.08;83.45;100638.69;5035826;28;995;-64
2022/11/03 01:46:42;;;;;;;;;;;;;;;15.07;83.39;100630.72;5035468;28;1906;-64
2022/11/03 01:49:13;;;;;;;;;;;;;;;15.07;83.38;100625.22;5035685;28;979;-64
2022/11/03 01:51:40;;;;;;;;;;;;;;;15.08;83.32;100629.59;5035659;28;987;-64
2022/11/03 01:54:07;;;;;;;;;;;;;;;15.07;83.42;100633.47;5035518;28;1963;-64
2022/11/03 01:56:34;;;;;;;;;;;;;;;15.07;83.30;100633.47;5035211;28;932;-64
2022/11/03 01:58:59;;;;;;;;;;;;;;;15.07;83.57;100633.47;5035676;28;1030;-64
2022/11/03 02:01:25;;;;;;;;;;;;;;;15.06;83.66;100638.19;5035761;28;828;-64
2022/11/03 02:03:52;;;;;;;;;;;;;;;15.06;83.56;100621.63;5035377;28;972;-64
2022/11/03 02:06:19;;;;;;;;;;;;;;;15.07;83.71;100625.22;5035042;28;1278;-64
2022/11/03 02:08:57;;;;;;;;;;;;;;;15.06;83.63;100620.81;5035629;28;838;-64
2022/11/03 02:14:13;;;;;;;;;;;;;;;15.05;83.28;100614.50;5035189;28;1957;-64
2022/11/03 02:16:40;;;;;;;;;;;;;;;15.06;83.67;100609.78;5034931;28;853;-64
2022/11/03 02:19:08;;;;;;;;;;;;;;;15.04;83.11;100610.13;5035062;28;932;-64
2022/11/03 02:21:41;;;;;;;;;;;;;;;15.04;83.12;100609.31;5035076;28;967;-64
2022/11/03 02:24:14;;;;;;;;;;;;;;;15.04;83.36;100603.78;5035032;28;1235;-64
2022/11/03 02:26:39;;;;;;;;;;;;;;;15.03;83.54;100596.63;5034859;28;1039;-64
2022/11/03 02:29:05;;;;;;;;;;;;;;;15.04;83.79;100592.75;5034944;28;1050;-64
2022/11/03 02:31:36;;;;;;;;;;;;;;;15.03;83.46;100602.16;5034973;28;843;-64
2022/11/03 02:34:02;;;;;;;;;;;;;;;15.03;83.68;100599.41;5034698;28;1890;-66
2022/11/03 02:36:29;;;;;;;;;;;;;;;15.02;83.77;100600.53;5034667;28;848;-66
2022/11/03 02:39:00;;;;;;;;;;;;;;;15.03;83.40;100602.16;5034744;28;984;-66
2022/11/03 02:41:26;;;;;;;;;;;;;;;15.02;83.76;100600.53;5034772;28;865;-66
2022/11/03 02:43:51;;;;;;;;;;;;;;;15.01;83.70;100596.13;5034620;28;873;-66
2022/11/03 02:46:17;;;;;;;;;;;;;;;15.01;83.58;100590.63;5033988;28;1263;-64
2022/11/03 02:48:42;;;;;;;;;;;;;;;15.00;83.74;100587.03;5034632;28;834;-66
2022/11/03 02:51:07;;;;;;;;;;;;;;;15.00;83.22;100587.03;5034643;28;877;-65
2022/11/03 02:53:42;;;;;;;;;;;;;;;15.00;83.78;100583.47;5034495;28;1953;-66
2022/11/03 02:56:14;;;;;;;;;;;;;;;15.00;83.34;100589.78;5034154;28;1229;-66
2022/11/03 02:58:57;;;;;;;;;;;;;;;14.99;83.25;100588.16;5034564;28;908;-66
2022/11/03 03:01:31;;;;;;;;;;;;;;;14.98;83.89;100586.53;5034360;28;967;-64
2022/11/03 03:03:58;;;;;;;;;;;;;;;15.00;83.80;100583.47;5034317;28;864;-66
2022/11/03 03:06:27;;;;;;;;;;;;;;;14.98;83.40;100582.94;5034067;28;810;-66
2022/11/03 03:08:54;;;;;;;;;;;;;;;14.98;83.72;100569.97;5034207;28;857;-63
2022/11/03 03:11:35;;;;;;;;;;;;;;;14.96;83.73;100558.47;5034102;28;861;-64
2022/11/03 03:14:00;;;;;;;;;;;;;;;14.97;83.58;100560.06;5034199;28;1949;-64
2022/11/03 03:16:30;;;;;;;;;;;;;;;14.98;83.26;100549.88;5033771;28;1040;-64
2022/11/03 03:19:01;;;;;;;;;;;;;;;14.97;83.27;100551.03;5033873;28;1475;-64
2022/11/03 03:21:30;;;;;;;;;;;;;;;14.96;83.53;100541.94;5033999;28;1055;-64
2022/11/03 03:24:01;;;;;;;;;;;;;;;14.97;83.76;100534.47;5034157;28;766;-64
2022/11/03 03:26:32;;;;;;;;;;;;;;;14.96;83.70;100536.41;5032674;28;984;-64
2022/11/03 03:29:15;;;;;;;;;;;;;;;14.96;83.63;100547.44;5033833;28;1051;-64
2022/11/03 03:31:44;;;;;;;;;;;;;;;14.96;83.28;100530.09;5033712;28;971;-64
2022/11/03 03:34:09;;;;;;;;;;;;;;;14.94;83.85;100537.84;5033692;28;1949;-64
2022/11/03 03:36:37;;;;;;;;;;;;;;;14.95;83.79;100545.81;5033726;28;1051;-64
2022/11/03 03:39:05;;;;;;;;;;;;;;;14.94;83.32;100544.19;5033725;28;1026;-64
2022/11/03 03:41:31;;;;;;;;;;;;;;;14.95;83.17;100545.00;5033591;28;991;-64
2022/11/03 03:43:59;;;;;;;;;;;;;;;14.95;83.23;100537.53;5033763;28;900;-64
2022/11/03 03:46:27;;;;;;;;;;;;;;;14.93;83.59;100526.00;5075258;22;2029;-63
2022/11/03 03:48:52;;;;;;;;;;;;;;;14.93;83.80;100519.66;5053229;28;999;-63
2022/11/03 03:51:21;;;;;;;;;;;;;;;14.92;83.44;100518.03;5053346;28;907;-62
2022/11/03 03:53:49;;;;;;;;;;;;;;;14.93;83.65;100519.66;5053030;28;1967;-62
2022/11/03 03:56:14;;;;;;;;;;;;;;;14.91;83.40;100506.19;5052240;28;1195;-63
2022/11/03 03:58:39;;;;;;;;;;;;;;;14.92;83.47;100504.25;5052690;28;916;-62
2022/11/03 04:01:04;;;;;;;;;;;;;;;14.91;83.80;100506.19;5053103;28;1026;-62
2022/11/03 04:03:30;;;;;;;;;;;;;;;14.90;83.42;100501.00;5053188;28;784;-62
2022/11/03 04:05:55;;;;;;;;;;;;;;;14.90;83.36;100495.47;5052910;28;1287;-63
2022/11/03 04:08:20;;;;;;;;;;;;;;;14.90;83.85;100501.00;5053228;28;995;-63
2022/11/03 04:22:15;;;;;;;;;;;;;;;14.90;83.32;100490.78;5053077;28;1944;-62
2022/11/03 04:24:26;;;;;;;;;;;;;;;14.88;83.41;100484.78;5053286;28;1517;-63
2022/11/03 04:26:51;;;;;;;;;;;;;;;14.89;84.04;100482.81;5052738;28;917;-62
2022/11/03 04:29:16;;;;;;;;;;;;;;;14.88;83.35;100472.94;5052961;28;841;-62
2022/11/03 04:31:41;;;;;;;;;;;;;;;14.88;83.64;100483.97;5052930;28;928;-62
2022/11/03 04:34:10;;;;;;;;;;;;;;;14.87;83.75;100479.56;5052851;28;1955;-62
2022/11/03 04:36:36;;;;;;;;;;;;;;;14.88;83.22;100470.19;5052583;28;1263;-63
2022/11/03 04:39:05;;;;;;;;;;;;;;;14.86;83.81;100464.97;5053014;28;845;-61
2022/11/03 04:41:31;;;;;;;;;;;;;;;14.87;83.73;100463.03;5052797;28;999;-61
2022/11/03 04:43:56;;;;;;;;;;;;;;;14.87;83.80;100463.03;5051561;28;1041;-62
2022/11/03 04:46:26;;;;;;;;;;;;;;;14.86;83.54;100462.22;5052318;28;1259;-63
2022/11/03 04:48:52;;;;;;;;;;;;;;;14.86;84.24;100458.66;5052937;28;925;-63
2022/11/03 04:51:19;;;;;;;;;;;;;;;14.86;83.76;100450.38;5052824;28;983;-61
2022/11/03 04:53:47;;;;;;;;;;;;;;;14.85;83.73;100446.00;5052815;28;1968;-62
2022/11/03 04:56:13;;;;;;;;;;;;;;;14.84;83.90;100449.88;5052374;28;1268;-62
2022/11/03 04:58:38;;;;;;;;;;;;;;;14.85;84.03;100446.81;5052667;28;1007;-62
2022/11/03 05:01:08;;;;;;;;;;;;;;;14.85;83.23;100440.47;5052741;28;971;-62
2022/11/03 05:03:34;;;;;;;;;;;;;;;14.84;83.85;100434.16;5052802;28;858;-62
2022/11/03 05:06:08;;;;;;;;;;;;;;;14.84;84.00;100430.59;5052431;28;1220;-62
2022/11/03 05:08:33;;;;;;;;;;;;;;;14.83;83.62;100435.28;5054781;28;1050;-62
2022/11/03 05:10:58;;;;;;;;;;;;;;;14.82;84.08;100430.88;5056276;28;913;-62
2022/11/03 05:13:24;;;;;;;;;;;;;;;14.83;83.95;100435.28;5056304;28;979;-62
2022/11/03 05:15:50;;;;;;;;;;;;;;;14.83;83.13;100437.22;5055876;28;1894;-62
2022/11/03 05:18:45;;;;;;;;;;;;;;;14.83;83.94;100423.44;5056247;28;1039;-62
2022/11/03 05:21:13;;;;;;;;;;;;;;;14.82;83.67;100424.56;5047171;28;1231;-62
2022/11/03 05:23:40;;;;;;;;;;;;;;;14.87;84.15;100418.94;5056386;28;872;-63
2022/11/03 05:26:10;;;;;;;;;;;;;;;14.94;83.80;100408.31;5055783;28;1291;-62
2022/11/03 05:28:40;;;;;;;;;;;;;;;15.01;83.95;100406.75;5056101;28;1070;-62
2022/11/03 05:31:17;;;;;;;;;;;;;;;15.05;83.96;100395.91;5056270;28;861;-62
2022/11/03 05:33:46;;;;;;;;;;;;;;;15.08;84.08;100400.78;5055911;28;1894;-61
2022/11/03 05:36:12;;;;;;;;;;;;;;;15.09;84.57;100396.91;5055563;28;1181;-62
2022/11/03 05:38:38;;;;;;;;;;;;;;;15.09;85.14;100389.44;5055925;28;971;-62
2022/11/03 05:41:04;;;;;;;;;;;;;;;15.09;84.77;100389.44;5055993;28;821;-63
2022/11/03 05:43:29;;;;;;;;;;;;;;;15.10;85.34;100391.09;5055786;28;979;-62
2022/11/03 05:45:56;;;;;;;;;;;;;;;15.10;84.80;100382.00;5055359;28;1288;-63
2022/11/03 05:48:33;;;;;;;;;;;;;;;15.11;85.04;100386.38;5055669;28;844;-62
2022/11/03 05:50:59;;;;;;;;;;;;;;;15.13;85.27;100379.44;5055660;28;959;-62
2022/11/03 05:53:45;;;;;;;;;;;;;;;15.14;85.33;100380.25;5055714;28;1135;-61
2022/11/03 05:56:21;;;;;;;;;;;;;;;15.14;85.06;100378.28;5054759;28;1700;-62
2022/11/03 05:58:47;;;;;;;;;;;;;;;15.15;85.72;100377.16;5055116;28;781;-61
2022/11/03 06:01:16;;;;;;;;;;;;;;;15.14;85.18;100375.53;5054037;28;820;-62
2022/11/03 06:03:41;;;;;;;;;;;;;;;15.14;85.47;100372.00;5055371;28;809;-62
2022/11/03 06:06:12;;;;;;;;;;;;;;;15.15;84.78;100362.56;5054985;28;1204;-61
2022/11/03 06:08:37;;;;;;;;;;;;;;;15.15;85.18;100377.16;5055401;28;980;-62
2022/11/03 06:11:03;;;;;;;;;;;;;;;15.17;85.04;100370.53;5055241;28;1034;-61
2022/11/03 06:13:36;;;;;;;;;;;;;;;15.19;84.91;100374.59;5055018;28;815;-62
2022/11/03 06:16:05;;;;;;;;;;;;;;;15.20;84.74;100370.72;5054623;28;1292;-61
2022/11/03 06:18:35;;;;;;;;;;;;;;;15.21;85.04;100364.09;5055021;28;893;-61
2022/11/03 06:21:08;;;;;;;;;;;;;;;15.22;85.11;100362.97;5054269;28;818;-62
2022/11/03 06:23:35;;;;;;;;;;;;;;;15.23;85.48;100359.03;5054860;28;1051;-61
2022/11/03 06:26:01;;;;;;;;;;;;;;;15.22;85.57;100362.97;5054389;28;1296;-62
2022/11/03 06:28:37;;;;;;;;;;;;;;;15.22;85.16;100356.63;5054709;28;953;-60
2022/11/03 06:31:04;;;;;;;;;;;;;;;15.21;85.10;100355.81;5054858;28;987;-62
2022/11/03 06:33:33;;;;;;;;;;;;;;;15.21;85.65;100355.00;5054753;28;900;-60
2022/11/03 06:36:04;;;;;;;;;;;;;;;15.23;85.62;100358.22;5054178;28;1988;-61
2022/11/03 06:38:30;;;;;;;;;;;;;;;15.23;85.64;100342.50;5054517;28;1183;-61
2022/11/03 06:40:56;;;;;;;;;;;;;;;15.22;85.24;100359.38;5054595;28;797;-61
2022/11/03 06:43:27;;;;;;;;;;;;;;;15.22;85.23;100351.13;5054581;28;817;-61
2022/11/03 06:45:57;;;;;;;;;;;;;;;15.22;85.33;100354.69;5054121;28;1287;-62
2022/11/03 06:48:26;;;;;;;;;;;;;;;15.23;85.63;100341.69;5054412;28;793;-61
2022/11/03 06:50:52;;;;;;;;;;;;;;;15.22;85.70;100343.66;5054466;28;921;-61
2022/11/03 06:53:19;;;;;;;;;;;;;;;15.25;85.27;100336.69;5054558;28;798;-61
2022/11/03 06:55:45;;;;;;;;;;;;;;;15.20;85.43;100343.16;5054171;28;1898;-63
2022/11/03 06:58:16;;;;;;;;;;;;;;;15.17;85.46;100346.53;5054389;28;845;-63
2022/11/03 07:00:41;;;;;;;;;;;;;;;15.13;85.19;100340.03;5054426;28;1031;-63
2022/11/03 07:03:07;;;;;;;;;;;;;;;15.10;85.22;100343.41;5054290;28;837;-62
2022/11/03 07:05:32;;;;;;;;;;;;;;;15.07;85.37;100328.28;5054077;28;1205;-61
2022/11/03 07:07:59;;;;;;;;;;;;;;;15.06;85.72;100325.84;5052990;28;742;-62
2022/11/03 07:10:25;;;;;;;;;;;;;;;15.04;85.40;100326.19;5054308;28;885;-61
2022/11/03 07:12:51;;;;;;;;;;;;;;;15.04;86.11;100326.19;5053997;28;995;-62
2022/11/03 07:15:23;;;;;;;;;;;;;;;15.03;85.21;100326.50;5053991;28;1951;-63
2022/11/03 07:17:48;;;;;;;;;;;;;;;15.02;85.76;100327.63;5053762;28;984;-62
2022/11/03 07:20:15;;;;;;;;;;;;;;;15.01;85.37;100320.47;5053894;28;825;-63
2022/11/03 07:22:40;;;;;;;;;;;;;;;15.00;85.53;100322.41;5053912;28;806;-62
2022/11/03 07:25:12;;;;;;;;;;;;;;;15.00;85.24;100316.09;5053832;28;1189;-63
2022/11/03 07:27:39;;;;;;;;;;;;;;;14.98;85.78;100312.81;5053561;28;1062;-62
2022/11/03 07:30:12;;;;;;;;;;;;;;;14.98;85.63;100302.63;5053865;28;813;-62
2022/11/03 07:32:38;;;;;;;;;;;;;;;14.96;85.64;100302.16;5052993;28;1019;-63
2022/11/03 07:35:17;;;;;;;;;;;;;;;14.97;84.99;100308.47;5053553;28;1957;-61
2022/11/03 07:37:46;;;;;;;;;;;;;;;14.96;85.13;100290.31;5053602;28;781;-62
2022/11/03 07:40:17;;;;;;;;;;;;;;;14.96;84.95;100287.53;5053676;28;865;-62
2022/11/03 07:42:42;;;;;;;;;;;;;;;14.96;85.46;100279.28;5053676;28;1054;-62
2022/11/03 07:45:26;;;;;;;;;;;;;;;14.95;85.21;100277.66;5053433;28;1220;-62
2022/11/03 07:47:51;;;;;;;;;;;;;;;14.94;84.91;100284.28;5053313;28;915;-61
2022/11/03 07:50:17;;;;;;;;;;;;;;;14.95;84.85;100283.97;5053453;28;967;-63
2022/11/03 07:52:42;;;;;;;;;;;;;;;14.95;84.97;100280.41;5053639;28;928;-63
2022/11/03 07:55:09;;;;;;;;;;;;;;;14.94;85.36;100273.25;5053237;28;1964;-62
2022/11/03 07:57:35;;;;;;;;;;;;;;;14.95;85.32;100274.88;5053082;28;1026;-63
2022/11/03 08:00:03;;;;;;;;;;;;;;;14.53;84.93;100210.94;5053378;28;976;-62
2022/11/03 08:02:33;;;;;;;;;;;;;;;14.95;84.93;100277.66;5053454;28;861;-63
2022/11/03 08:04:58;;;;;;;;;;;;;;;14.93;84.76;100266.13;5053284;28;1214;-62
2022/11/03 08:07:23;;;;;;;;;;;;;;;14.95;85.18;100267.44;5053071;28;919;-62
2022/11/03 08:09:49;;;;;;;;;;;;;;;14.94;85.40;100262.22;5053256;28;1032;-63
2022/11/03 08:12:14;;;;;;;;;;;;;;;14.95;85.17;100263.88;5053128;28;883;-63
2022/11/03 08:14:39;;;;;;;;;;;;;;;14.95;85.44;100258.34;5053088;28;1890;-62
2022/11/03 08:17:04;;;;;;;;;;;;;;;14.93;85.04;100253.16;5052964;28;877;-63
2022/11/03 08:19:30;;;;;;;;;;;;;;;14.95;84.73;100241.81;5053127;28;1058;-62
2022/11/03 08:21:55;;;;;;;;;;;;;;;14.95;84.58;100244.56;5053134;28;785;-62
2022/11/03 08:24:20;;;;;;;;;;;;;;;14.94;84.65;100234.69;5052978;28;1601;-62
2022/11/03 08:26:45;;;;;;;;;;;;;;;14.95;85.00;100233.56;5052936;28;844;-62
2022/11/03 08:29:11;;;;;;;;;;;;;;;14.95;84.51;100241.81;5052979;28;951;-63
2022/11/03 08:31:36;;;;;;;;;;;;;;;14.95;84.68;100225.28;5053030;28;1019;-63
2022/11/03 08:34:01;;;;;;;;;;;;;;;14.94;84.97;100223.66;5052860;28;1953;-62
2022/11/03 08:36:26;;;;;;;;;;;;;;;14.93;84.29;100203.53;5052662;28;1271;-63
2022/11/03 08:38:51;;;;;;;;;;;;;;;14.93;85.14;100211.00;5052964;28;785;-63
2022/11/03 08:41:16;;;;;;;;;;;;;;;14.92;84.26;100212.94;5052857;28;1027;-62
2022/11/03 08:43:41;;;;;;;;;;;;;;;14.93;84.89;100211.00;5055500;28;848;-63
2022/11/03 08:46:07;;;;;;;;;;;;;;;14.92;84.77;100201.91;5056453;28;1288;-62
2022/11/03 08:48:32;;;;;;;;;;;;;;;14.94;84.48;100201.59;5056884;28;1046;-61
2022/11/03 08:50:57;;;;;;;;;;;;;;;14.95;84.49;100197.72;5056835;28;786;-62
2022/11/03 08:53:25;;;;;;;;;;;;;;;14.95;84.42;100197.72;5056724;28;808;-62
2022/11/03 08:55:51;;;;;;;;;;;;;;;14.95;84.91;100204.03;5056196;28;1902;-63
2022/11/03 08:58:17;;;;;;;;;;;;;;;14.96;84.26;100207.63;5056643;28;829;-62
2022/11/03 09:00:42;;;;;;;;;;;;;;;14.96;84.61;100202.09;5056833;28;856;-62
2022/11/03 09:03:07;;;;;;;;;;;;;;;14.97;84.27;100198.22;5056650;28;963;-61
2022/11/03 09:05:32;;;;;;;;;;;;;;;14.96;84.21;100180.88;5056377;28;1178;-63
2022/11/03 09:07:58;;;;;;;;;;;;;;;14.97;84.61;100184.44;5056435;28;977;-61
2022/11/03 09:10:23;;;;;;;;;;;;;;;14.97;84.27;100178.94;5056264;28;916;-62
2022/11/03 09:12:48;;;;;;;;;;;;;;;14.95;84.29;100184.75;5056371;28;876;-62
2022/11/03 09:15:14;;;;;;;;;;;;;;;14.95;84.59;100176.50;5056216;28;1922;-61
2022/11/03 09:17:39;;;;;;;;;;;;;;;14.96;84.36;100177.31;5056065;28;825;-62
2022/11/03 09:20:05;;;;;;;;;;;;;;;14.96;84.11;100171.78;5056212;28;1023;-64
2022/11/03 09:22:30;;;;;;;;;;;;;;;14.95;84.09;100175.69;5056309;28;808;-63
2022/11/03 09:24:55;;;;;;;;;;;;;;;14.96;84.55;100171.78;5056110;28;1247;-62
2022/11/03 09:27:20;;;;;;;;;;;;;;;14.96;84.22;100163.53;5055863;28;801;-62
2022/11/03 09:29:46;;;;;;;;;;;;;;;14.96;84.13;100138.72;5056217;28;903;-61
2022/11/03 09:32:11;;;;;;;;;;;;;;;14.95;84.60;100084.72;5055995;28;1023;-62
2022/11/03 09:34:36;;;;;;;;;;;;;;;14.94;84.17;100063.81;5055942;28;1953;-62
2022/11/03 09:37:01;;;;;;;;;;;;;;;14.95;84.34;100096.56;5055673;28;967;-62
2022/11/03 09:39:26;;;;;;;;;;;;;;;14.96;84.62;100113.91;5055871;28;860;-62
2022/11/03 09:41:52;;;;;;;;;;;;;;;14.97;84.48;100118.28;5055823;28;1035;-62
2022/11/03 09:44:17;;;;;;;;;;;;;;;14.96;84.15;100106.47;5055709;28;1216;-63
2022/11/03 09:46:43;;;;;;;;;;;;;;;14.96;84.03;100114.72;5102612;22;2157;-64
2022/11/03 09:49:11;;;;;;;;;;;;;;;14.96;83.80;100111.97;5095772;28;934;-66
2022/11/03 09:51:37;;;;;;;;;;;;;;;14.96;84.49;100106.47;5095609;28;986;-65
2022/11/03 09:54:03;;;;;;;;;;;;;;;14.97;84.55;100112.78;5095084;28;1910;-67
2022/11/03 09:56:28;;;;;;;;;;;;;;;14.97;83.76;100112.78;5095291;28;1279;-66
2022/11/03 09:58:54;;;;;;;;;;;;;;;14.98;83.98;100106.13;5095771;28;855;-66
2022/11/03 10:01:19;;;;;;;;;;;;;;;14.98;84.46;100103.34;5095816;28;994;-66
2022/11/03 10:03:44;;;;;;;;;;;;;;;14.98;84.24;100104.19;5095736;28;924;-66
2022/11/03 10:06:09;;;;;;;;;;;;;;;14.99;84.36;100110.50;5095346;28;1187;-66
2022/11/03 10:08:36;;;;;;;;;;;;;;;14.99;84.52;100113.25;5095668;28;883;-66
2022/11/03 10:11:05;;;;;;;;;;;;;;;15.00;84.44;100118.44;5095632;28;870;-64
2022/11/03 10:13:33;;;;;;;;;;;;;;;15.01;83.76;100122.03;5095526;28;911;-66
2022/11/03 10:16:01;;;;;;;;;;;;;;;15.02;83.48;100109.88;5095212;28;1905;-66
2022/11/03 10:18:27;;;;;;;;;;;;;;;15.02;83.76;100110.69;5095411;28;915;-66
2022/11/03 10:20:52;;;;;;;;;;;;;;;15.03;84.36;100106.00;5095305;28;1188;-66
2022/11/03 10:23:17;;;;;;;;;;;;;;;15.03;83.86;100094.97;5095193;28;940;-66
2022/11/03 10:25:43;;;;;;;;;;;;;;;15.03;84.16;100086.69;5095114;28;1206;-66
2022/11/03 10:28:11;;;;;;;;;;;;;;;15.03;83.64;100072.91;5095012;28;966;-66
2022/11/03 10:30:52;;;;;;;;;;;;;;;15.04;83.64;100069.03;5095129;28;1027;-66
2022/11/03 10:33:23;;;;;;;;;;;;;;;15.03;83.54;100064.66;5095086;28;921;-66
2022/11/03 10:35:49;;;;;;;;;;;;;;;15.04;84.29;100052.50;5094633;28;1893;-66
2022/11/03 10:38:27;;;;;;;;;;;;;;;15.03;83.34;100053.63;5094646;28;1049;-65
2022/11/03 10:40:54;;;;;;;;;;;;;;;14.95;82.55;100048.91;5094858;28;920;-65
2022/11/03 10:43:19;;;;;;;;;;;;;;;14.89;82.80;100050.97;5094595;28;907;-66
2022/11/03 10:45:44;;;;;;;;;;;;;;;14.85;82.11;100041.75;5094395;28;1279;-66
2022/11/03 10:48:09;;;;;;;;;;;;;;;14.83;81.81;100038.47;5094465;28;854;-66
2022/11/03 10:50:36;;;;;;;;;;;;;;;14.82;81.98;100042.38;5094465;28;868;-66
2022/11/03 10:53:02;;;;;;;;;;;;;;;14.80;81.94;100041.09;5094451;28;1059;-66
2022/11/03 10:55:27;;;;;;;;;;;;;;;14.77;81.80;100031.50;5094427;28;1894;-65
2022/11/03 10:57:56;;;;;;;;;;;;;;;14.80;81.73;100027.31;5094141;28;846;-65
2022/11/03 11:00:23;;;;;;;;;;;;;;;14.79;81.14;100014.66;5094240;28;895;-66
2022/11/03 11:02:50;;;;;;;;;;;;;;;14.77;81.09;100012.22;5094265;28;895;-66
2022/11/03 11:05:20;;;;;;;;;;;;;;;14.76;80.99;100010.59;5093979;28;1209;-66
2022/11/03 11:07:45;;;;;;;;;;;;;;;14.76;80.64;99997.63;5093895;28;883;-66
2022/11/03 11:10:10;;;;;;;;;;;;;;;14.75;79.67;99993.25;5094060;28;983;-66
2022/11/03 11:12:36;;;;;;;;;;;;;;;14.75;80.54;99989.69;5094081;28;963;-66
2022/11/03 11:15:06;;;;;;;;;;;;;;;14.75;80.43;99989.69;5093900;28;1893;-65
2022/11/03 11:17:41;;;;;;;;;;;;;;;14.73;79.71;99981.72;5093653;28;811;-65
2022/11/03 11:20:20;;;;;;;;;;;;;;;14.72;80.29;99980.09;5094162;28;1007;-66
2022/11/03 11:22:46;;;;;;;;;;;;;;;14.73;79.75;99972.66;5093935;28;920;-66
2022/11/03 11:25:11;;;;;;;;;;;;;;;14.73;79.60;99964.38;5093724;28;1220;-65
2022/11/03 11:27:39;;;;;;;;;;;;;;;14.71;80.30;99952.91;5093512;28;1034;-66
2022/11/03 11:30:06;;;;;;;;;;;;;;;14.69;79.48;99953.22;5093758;28;952;-66
2022/11/03 11:32:34;;;;;;;;;;;;;;;14.68;79.26;99946.09;5093737;28;817;-66
2022/11/03 11:34:59;;;;;;;;;;;;;;;14.69;80.07;99925.66;5093532;28;1898;-64
2022/11/03 11:37:24;;;;;;;;;;;;;;;14.69;79.47;99925.66;5093813;28;657;-66
2022/11/03 11:39:49;;;;;;;;;;;;;;;14.68;79.88;99917.72;5093631;28;816;-65
2022/11/03 11:42:19;;;;;;;;;;;;;;;14.68;79.44;99918.53;5093573;28;926;-66
2022/11/03 11:44:44;;;;;;;;;;;;;;;14.69;79.94;99911.09;5093619;28;1285;-66
2022/11/03 11:47:25;;;;;;;;;;;;;;;14.68;79.84;99915.78;5093572;28;970;-65
2022/11/03 11:50:05;;;;;;;;;;;;;;;14.68;79.15;99912.22;5093690;28;880;-66
2022/11/03 11:52:36;;;;;;;;;;;;;;;14.67;79.34;99900.38;5093707;28;829;-66
2022/11/03 11:55:02;;;;;;;;;;;;;;;14.66;78.70;99884.16;5093494;28;1972;-66
2022/11/03 11:57:29;;;;;;;;;;;;;;;14.66;79.17;99884.16;5093415;28;943;-66
2022/11/03 11:59:54;;;;;;;;;;;;;;;14.67;78.81;99878.34;5093798;28;970;-64
2022/11/03 12:02:22;;;;;;;;;;;;;;;14.65;78.90;99875.09;5093951;28;871;-65
2022/11/03 12:04:50;;;;;;;;;;;;;;;14.63;78.42;99869.09;5093381;28;1202;-66
2022/11/03 12:07:15;;;;;;;;;;;;;;;14.66;79.01;99875.91;5093353;28;1018;-66
2022/11/03 12:09:42;;;;;;;;;;;;;;;14.66;79.20;99862.13;5093380;28;990;-65
2022/11/03 12:12:07;;;;;;;;;;;;;;;14.65;78.93;99855.81;5093706;28;856;-65
2022/11/03 12:14:33;;;;;;;;;;;;;;;14.66;79.08;99849.16;5093334;28;1870;-65
2022/11/03 12:17:17;;;;;;;;;;;;;;;14.65;78.48;99831.03;5092875;28;1161;-65
2022/11/03 12:19:46;;;;;;;;;;;;;;;14.65;78.18;99824.69;5093332;28;848;-66
2022/11/03 12:22:31;;;;;;;;;;;;;;;14.64;78.34;99825.84;5093349;28;852;-66
2022/11/03 12:25:00;;;;;;;;;;;;;;;14.73;78.82;99829.41;5093338;28;1925;-66
2022/11/03 12:27:25;;;;;;;;;;;;;;;14.82;79.06;99812.88;5093274;28;871;-65
2022/11/03 12:29:58;;;;;;;;;;;;;;;14.92;79.08;99804.28;5093367;28;854;-64
2022/11/03 12:32:24;;;;;;;;;;;;;;;15.06;79.21;99799.38;5093314;28;822;-65
2022/11/03 12:34:49;;;;;;;;;;;;;;;15.27;78.68;99796.75;5092995;28;1964;-64
2022/11/03 12:37:14;;;;;;;;;;;;;;;15.46;78.61;99788.91;5093348;28;899;-65
2022/11/03 12:39:39;;;;;;;;;;;;;;;15.61;78.04;99790.34;5093322;28;932;-66
2022/11/03 12:42:05;;;;;;;;;;;;;;;15.75;78.09;99782.63;5093220;28;1185;-66
2022/11/03 12:44:30;;;;;;;;;;;;;;;15.84;77.91;99775.94;5093235;28;868;-66
2022/11/03 12:46:55;;;;;;;;;;;;;;;15.93;78.10;99775.06;5092662;28;1179;-65
2022/11/03 12:49:20;;;;;;;;;;;;;;;16.00;77.50;99770.63;5093058;28;990;-66
2022/11/03 12:51:46;;;;;;;;;;;;;;;16.05;78.16;99756.66;5091949;28;928;-66
2022/11/03 12:54:11;;;;;;;;;;;;;;;16.14;77.85;99749.13;5093086;28;1967;-66
2022/11/03 12:56:36;;;;;;;;;;;;;;;16.25;77.37;99755.03;5092678;28;1299;-65
2022/11/03 12:59:01;;;;;;;;;;;;;;;16.36;77.52;99747.16;5093075;28;841;-64
2022/11/03 13:01:26;;;;;;;;;;;;;;;16.44;76.99;99740.75;5093087;28;1023;-65
2022/11/03 13:03:52;;;;;;;;;;;;;;;16.51;76.67;99732.72;5092963;28;990;-64
2022/11/03 13:06:17;;;;;;;;;;;;;;;16.56;77.60;99730.59;5092734;28;1288;-65
2022/11/03 13:08:42;;;;;;;;;;;;;;;16.61;76.67;99729.59;5092974;28;1014;-65
2022/11/03 13:12:30;;;;;;;;;;;;;;;16.63;77.12;99730.06;5092974;28;769;-66
2022/11/03 13:13:52;;;;;;;;;;;;;;;16.63;77.72;99725.34;5092651;28;1897;-65